createdAt,value
2019-01-08T00:00:06.853Z,95775.06
2019-01-08T00:02:36.387Z,95769.51
2019-01-08T00:05:05.982Z,95767.34
2019-01-08T00:07:35.690Z,95761.98
2019-01-08T00:10:05.634Z,95763.73
2019-01-08T00:12:35.329Z,95763.64
2019-01-08T00:15:04.934Z,95766.09
2019-01-08T00:17:34.777Z,95770.45
2019-01-08T00:20:04.354Z,95763.95
2019-01-08T00:22:34.087Z,95764.26
2019-01-08T00:25:03.782Z,95759.72
2019-01-08T00:27:33.417Z,95757.45
2019-01-08T00:30:03.104Z,95760.12
2019-01-08T00:32:32.779Z,95764.56
2019-01-08T00:35:02.512Z,95758.08
2019-01-08T00:37:32.023Z,95762.91
2019-01-08T00:40:01.837Z,95758.91
2019-01-08T00:42:31.576Z,95756.02
2019-01-08T00:45:01.254Z,95758.18
2019-01-08T00:47:30.975Z,95756.11
2019-01-08T00:50:00.585Z,95757.14
2019-01-08T00:52:30.401Z,95754.98
2019-01-08T00:54:59.993Z,95750.95
2019-01-08T00:57:29.611Z,95747.66
2019-01-08T00:59:59.227Z,95743.76
2019-01-08T01:02:28.935Z,95735.50
2019-01-08T01:04:58.638Z,95737.78
2019-01-08T01:07:28.143Z,95733.04
2019-01-08T01:09:57.752Z,95733.75
2019-01-08T01:12:27.469Z,95730.67
2019-01-08T01:14:57.172Z,95730.97
2019-01-08T01:17:26.575Z,95728.72
2019-01-08T01:19:56.191Z,95722.52
2019-01-08T01:22:25.999Z,95722.61
2019-01-08T01:24:55.592Z,95727.98
2019-01-08T01:27:25.319Z,95731.58
2019-01-08T01:29:55.011Z,95728.39
2019-01-08T01:32:24.750Z,95730.66
2019-01-08T01:34:54.341Z,95724.58
2019-01-08T01:37:24.072Z,95719.44
2019-01-08T01:39:53.779Z,95726.34
2019-01-08T01:42:23.381Z,95719.24
2019-01-08T01:44:53.083Z,95725.42
2019-01-08T01:47:22.699Z,95720.06
2019-01-08T01:49:52.414Z,95716.02
2019-01-08T01:52:22.022Z,95715.20
2019-01-08T01:54:51.824Z,95715.92
2019-01-08T01:57:21.551Z,95716.84
2019-01-08T01:59:51.141Z,95715.63
2019-01-08T02:02:20.792Z,95717.67
2019-01-08T02:04:50.378Z,95710.68
2019-01-08T02:07:20.083Z,95710.05
2019-01-08T02:09:49.792Z,95709.86
2019-01-08T02:12:19.432Z,95702.42
2019-01-08T02:14:49.109Z,95704.78
2019-01-08T02:17:18.821Z,95697.98
2019-01-08T02:19:48.423Z,95691.59
2019-01-08T02:22:18.008Z,95685.00
2019-01-08T02:24:47.740Z,95687.91
2019-01-08T02:27:17.450Z,95682.84
2019-01-08T02:29:47.161Z,95674.93
2019-01-08T02:32:16.791Z,95677.28
2019-01-08T02:34:46.444Z,95671.20
2019-01-08T02:37:16.004Z,95665.33
2019-01-08T02:39:45.592Z,95663.89
2019-01-08T02:42:15.117Z,95656.77
2019-01-08T02:44:44.624Z,95659.25
2019-01-08T02:47:14.324Z,95657.94
2019-01-08T02:49:43.925Z,95652.25
2019-01-08T02:52:13.397Z,95647.84
2019-01-08T02:54:43.063Z,95646.72
2019-01-08T02:57:12.725Z,95643.79
2019-01-08T02:59:42.365Z,95643.20
2019-01-08T03:02:11.975Z,95644.41
2019-01-08T03:04:41.701Z,95646.08
2019-01-08T03:07:11.389Z,95639.90
2019-01-08T03:09:40.880Z,95637.19
2019-01-08T03:12:10.502Z,95633.69
2019-01-08T03:14:40.088Z,95634.12
2019-01-08T03:17:09.627Z,95635.75
2019-01-08T03:19:39.332Z,95634.73
2019-01-08T03:22:10.016Z,95632.48
2019-01-08T03:24:39.546Z,95634.12
2019-01-08T03:27:09.036Z,95635.16
2019-01-08T03:29:38.804Z,95632.28
2019-01-08T03:32:08.481Z,95626.31
2019-01-08T03:34:37.973Z,95626.20
2019-01-08T03:37:07.508Z,95629.19
2019-01-08T03:39:37.026Z,95629.19
2019-01-08T03:42:06.588Z,95626.08
2019-01-08T03:44:36.247Z,95627.97
2019-01-08T03:47:05.736Z,95630.12
2019-01-08T03:49:35.160Z,95632.05
2019-01-08T03:52:04.758Z,95623.72
2019-01-08T03:54:34.399Z,95625.69
2019-01-08T03:57:04.052Z,95626.80
2019-01-08T03:59:41.720Z,95621.73
2019-01-08T04:02:05.211Z,95621.11
2019-01-08T04:04:34.743Z,95618.05
2019-01-08T04:07:04.350Z,95620.53
2019-01-08T04:09:33.957Z,95618.86
2019-01-08T04:12:03.470Z,95607.12
2019-01-08T04:14:33.078Z,95597.75
2019-01-08T04:17:02.664Z,95603.44
2019-01-08T04:19:32.097Z,95603.11
2019-01-08T04:22:01.691Z,95603.73
2019-01-08T04:24:31.307Z,95592.16
2019-01-08T04:27:00.810Z,95602.69
2019-01-08T04:29:30.419Z,95597.33
2019-01-08T04:31:59.982Z,95597.03
2019-01-08T04:34:29.546Z,95599.29
2019-01-08T04:36:59.131Z,95586.45
2019-01-08T04:39:28.715Z,95586.09
2019-01-08T04:41:58.224Z,95578.05
2019-01-08T04:44:27.873Z,95573.45
2019-01-08T04:46:57.436Z,95579.33
2019-01-08T04:49:27.099Z,95572.53
2019-01-08T04:51:56.682Z,95569.33
2019-01-08T04:54:26.160Z,95579.39
2019-01-08T04:56:55.897Z,95572.92
2019-01-08T04:59:25.521Z,95577.95
2019-01-08T05:01:55.077Z,95577.56
2019-01-08T05:04:24.938Z,95583.02
2019-01-08T05:06:54.521Z,95579.09
2019-01-08T05:09:24.187Z,95583.84
2019-01-08T05:11:53.758Z,95578.70
2019-01-08T05:14:23.360Z,95581.45
2019-01-08T05:16:52.979Z,95582.72
2019-01-08T05:19:22.588Z,95580.37
2019-01-08T05:21:52.297Z,95575.60
2019-01-08T05:24:22.059Z,95584.91
2019-01-08T05:26:51.577Z,95580.20
2019-01-08T05:29:21.403Z,95570.47
2019-01-08T05:31:50.916Z,95571.71
2019-01-08T05:34:20.676Z,95567.30
2019-01-08T05:36:50.244Z,95559.20
2019-01-08T05:39:19.739Z,95561.65
2019-01-08T05:41:49.263Z,95557.95
2019-01-08T05:44:19.030Z,95566.20
2019-01-08T05:46:48.699Z,95565.33
2019-01-08T05:49:18.201Z,95561.92
2019-01-08T05:51:47.771Z,95558.16
2019-01-08T05:54:17.526Z,95558.16
2019-01-08T05:56:47.118Z,95549.30
2019-01-08T05:59:16.816Z,95548.14
2019-01-08T06:01:46.457Z,95564.75
2019-01-08T06:04:16.051Z,95552.07
2019-01-08T06:06:45.662Z,95559.88
2019-01-08T06:09:15.272Z,95559.16
2019-01-08T06:11:45.910Z,95553.18
2019-01-08T06:14:15.620Z,95547.53
2019-01-08T06:16:45.327Z,95553.03
2019-01-08T06:19:14.954Z,95556.72
2019-01-08T06:21:44.547Z,95553.56
2019-01-08T06:24:14.284Z,95550.93
2019-01-08T06:26:43.912Z,95541.93
2019-01-08T06:29:13.505Z,95544.70
2019-01-08T06:31:43.304Z,95544.13
2019-01-08T06:34:12.899Z,95552.65
2019-01-08T06:36:42.639Z,95546.66
2019-01-08T06:39:12.211Z,95552.79
2019-01-08T06:41:44.261Z,95556.29
2019-01-08T06:44:13.991Z,95556.58
2019-01-08T06:46:43.634Z,95544.30
2019-01-08T06:49:13.210Z,95547.41
2019-01-08T06:51:42.928Z,95544.09
2019-01-08T06:54:12.526Z,95548.77
2019-01-08T06:56:42.245Z,95538.45
2019-01-08T06:59:11.840Z,95540.84
2019-01-08T07:01:41.485Z,95539.93
2019-01-08T07:04:11.179Z,95536.41
2019-01-08T07:06:41.053Z,95536.83
2019-01-08T07:09:10.692Z,95532.90
2019-01-08T07:11:40.225Z,95527.83
2019-01-08T07:14:09.906Z,95526.25
2019-01-08T07:16:39.539Z,95524.89
2019-01-08T07:19:09.240Z,95518.73
2019-01-08T07:21:38.957Z,95523.08
2019-01-08T07:24:08.573Z,95517.72
2019-01-08T07:26:38.398Z,95519.49
2019-01-08T07:29:08.093Z,95516.88
2019-01-08T07:31:37.843Z,95521.94
2019-01-08T07:34:07.497Z,95524.86
2019-01-08T07:36:37.149Z,95514.63
2019-01-08T07:39:07.528Z,95515.15
2019-01-08T07:41:37.170Z,95518.44
2019-01-08T07:44:08.033Z,95518.27
2019-01-08T07:46:37.696Z,95520.04
2019-01-08T07:49:07.205Z,95513.14
2019-01-08T07:51:36.827Z,95520.74
2019-01-08T07:54:06.360Z,95504.48
2019-01-08T07:56:35.970Z,95510.45
2019-01-08T07:59:05.835Z,95506.25
2019-01-08T08:01:35.577Z,95506.02
2019-01-08T08:04:05.256Z,95499.41
2019-01-08T08:06:34.901Z,95498.12
2019-01-08T08:09:05.206Z,95503.57
2019-01-08T08:11:34.820Z,95503.66
2019-01-08T08:14:04.613Z,95499.11
2019-01-08T08:16:34.278Z,95499.02
2019-01-08T08:19:03.720Z,95494.83
2019-01-08T08:21:33.138Z,95492.84
2019-01-08T08:24:02.848Z,95486.34
2019-01-08T08:26:33.061Z,95485.44
2019-01-08T08:29:02.564Z,95486.96
2019-01-08T08:31:35.615Z,95484.10
2019-01-08T08:34:05.269Z,95479.45
2019-01-08T08:36:35.357Z,95482.03
2019-01-08T08:39:05.606Z,95472.66
2019-01-08T08:41:35.365Z,95471.52
2019-01-08T08:44:04.893Z,95464.25
2019-01-08T08:46:34.469Z,95464.72
2019-01-08T08:49:05.748Z,95453.16
2019-01-08T08:51:36.079Z,95465.69
2019-01-08T08:54:05.583Z,95450.00
2019-01-08T08:56:35.221Z,95461.58
2019-01-08T08:59:04.732Z,95453.33
2019-01-08T09:01:34.321Z,95442.81
2019-01-08T09:04:03.952Z,95442.29
2019-01-08T09:06:33.561Z,95438.59
2019-01-08T09:09:03.373Z,95435.67
2019-01-08T09:11:33.079Z,95428.98
2019-01-08T09:14:02.470Z,95429.73
2019-01-08T09:16:32.083Z,95426.09
2019-01-08T09:19:02.232Z,95419.16
2019-01-08T09:21:31.736Z,95416.80
2019-01-08T09:24:01.435Z,95402.50
2019-01-08T09:26:31.109Z,95389.77
2019-01-08T09:29:00.851Z,95392.53
2019-01-08T09:31:30.649Z,95388.22
2019-01-08T09:34:00.385Z,95382.25
2019-01-08T09:36:30.126Z,95375.23
2019-01-08T09:38:59.694Z,95375.08
2019-01-08T09:41:31.910Z,95367.50
2019-01-08T09:44:01.774Z,95353.66
2019-01-08T09:46:31.446Z,95354.27
2019-01-08T09:49:01.251Z,95346.44
2019-01-08T09:51:30.809Z,95338.98
2019-01-08T09:54:00.523Z,95345.09
2019-01-08T09:56:29.928Z,95340.09
2019-01-08T09:58:59.784Z,95335.42
2019-01-08T10:01:29.411Z,95328.95
2019-01-08T10:03:59.261Z,95318.97
2019-01-08T10:06:28.887Z,95303.98
2019-01-08T10:08:58.296Z,95306.09
2019-01-08T10:11:27.999Z,95306.30
2019-01-08T10:13:57.705Z,95293.95
2019-01-08T10:16:27.474Z,95286.48
2019-01-08T10:18:57.109Z,95278.03
2019-01-08T10:21:26.516Z,95283.16
2019-01-08T10:23:56.193Z,95272.72
2019-01-08T10:26:26.061Z,95266.98
2019-01-08T10:28:55.631Z,95257.61
2019-01-08T10:31:32.299Z,95253.14
2019-01-08T10:33:56.719Z,95249.20
2019-01-08T10:36:26.375Z,95228.94
2019-01-08T10:38:56.143Z,95237.74
2019-01-08T10:41:25.850Z,95231.13
2019-01-08T10:43:55.383Z,95216.06
2019-01-08T10:46:25.062Z,95205.95
2019-01-08T10:48:54.894Z,95203.48
2019-01-08T10:51:24.508Z,95201.64
2019-01-08T10:53:54.154Z,95196.12
2019-01-08T10:56:23.801Z,95188.16
2019-01-08T10:58:53.322Z,95182.43
2019-01-08T11:01:22.971Z,95179.06
2019-01-08T11:03:52.603Z,95169.99
2019-01-08T11:06:22.239Z,95177.43
2019-01-08T11:08:51.960Z,95163.37
2019-01-08T11:11:21.620Z,95164.47
2019-01-08T11:13:51.371Z,95164.09
2019-01-08T11:16:20.948Z,95153.22
2019-01-08T11:18:50.555Z,95150.33
2019-01-08T11:21:20.149Z,95153.08
2019-01-08T11:23:49.840Z,95144.13
2019-01-08T11:26:19.430Z,95139.75
2019-01-08T11:28:49.165Z,95130.27
2019-01-08T11:31:18.937Z,95121.48
2019-01-08T11:33:48.658Z,95117.39
2019-01-08T11:36:18.152Z,95103.31
2019-01-08T11:38:47.778Z,95104.55
2019-01-08T11:41:17.479Z,95102.01
2019-01-08T11:43:46.986Z,95102.82
2019-01-08T11:46:16.687Z,95097.21
2019-01-08T11:48:46.295Z,95096.11
2019-01-08T11:51:15.807Z,95093.43
2019-01-08T11:53:45.536Z,95084.18
2019-01-08T11:56:15.119Z,95079.31
2019-01-08T11:58:44.898Z,95078.11
2019-01-08T12:01:14.471Z,95069.99
2019-01-08T12:03:44.045Z,95066.10
2019-01-08T12:06:13.756Z,95064.02
2019-01-08T12:08:43.504Z,95062.39
2019-01-08T12:11:13.022Z,95057.77
2019-01-08T12:13:42.622Z,95051.66
2019-01-08T12:16:12.508Z,95037.19
2019-01-08T12:18:42.003Z,95036.25
2019-01-08T12:21:11.533Z,95034.03
2019-01-08T12:23:41.126Z,95031.95
2019-01-08T12:26:10.856Z,95030.60
2019-01-08T12:28:40.459Z,95021.75
2019-01-08T12:31:09.936Z,95024.24
2019-01-08T12:33:39.588Z,95018.75
2019-01-08T12:36:09.272Z,95018.13
2019-01-08T12:38:38.984Z,95005.65
2019-01-08T12:41:08.585Z,95005.93
2019-01-08T12:43:38.154Z,95005.73
2019-01-08T12:46:07.800Z,95007.92
2019-01-08T12:48:37.210Z,95000.97
2019-01-08T12:51:06.817Z,94996.28
2019-01-08T12:53:36.439Z,95001.09
2019-01-08T12:56:05.943Z,95000.31
2019-01-08T12:58:35.513Z,94996.94
2019-01-08T13:01:04.939Z,94996.25
2019-01-08T13:03:34.814Z,94991.82
2019-01-08T13:06:04.294Z,94985.05
2019-01-08T13:08:33.908Z,94975.47
2019-01-08T13:11:03.454Z,94972.19
2019-01-08T13:13:33.349Z,94974.47
2019-01-08T13:16:02.908Z,94969.69
2019-01-08T13:18:32.742Z,94963.91
2019-01-08T13:21:02.289Z,94966.31
2019-01-08T13:23:31.944Z,94957.95
2019-01-08T13:26:01.534Z,94956.22
2019-01-08T13:28:31.184Z,94955.32
2019-01-08T13:31:00.756Z,94949.02
2019-01-08T13:33:30.319Z,94941.98
2019-01-08T13:36:00.000Z,94943.55
2019-01-08T13:38:29.408Z,94945.59
2019-01-08T13:40:58.873Z,94948.42
2019-01-08T13:43:28.630Z,94944.67
2019-01-08T13:45:58.398Z,94945.94
2019-01-08T13:48:28.138Z,94943.25
2019-01-08T13:50:57.715Z,94931.36
2019-01-08T13:53:27.348Z,94927.39
2019-01-08T13:55:56.950Z,94931.59
2019-01-08T13:58:26.679Z,94925.07
2019-01-08T14:00:56.404Z,94923.92
2019-01-08T14:03:26.034Z,94918.34
2019-01-08T14:05:55.675Z,94914.74
2019-01-08T14:08:25.319Z,94914.48
2019-01-08T14:10:56.527Z,94912.94
2019-01-08T14:13:26.457Z,94907.58
2019-01-08T14:15:56.091Z,94902.43
2019-01-08T14:18:25.670Z,94890.41
2019-01-08T14:20:59.687Z,94892.36
2019-01-08T14:23:29.293Z,94882.91
2019-01-08T14:25:59.014Z,94869.44
2019-01-08T14:28:28.617Z,94877.67
2019-01-08T14:30:58.379Z,94874.94
2019-01-08T14:33:28.081Z,94872.13
2019-01-08T14:35:57.720Z,94862.67
2019-01-08T14:38:27.624Z,94860.47
2019-01-08T14:40:57.280Z,94860.19
2019-01-08T14:43:26.853Z,94853.36
2019-01-08T14:45:56.360Z,94853.83
2019-01-08T14:48:26.246Z,94848.69
2019-01-08T14:50:55.928Z,94838.33
2019-01-08T14:53:25.387Z,94834.98
2019-01-08T14:55:55.097Z,94818.53
2019-01-08T14:58:24.838Z,94810.95
2019-01-08T15:00:54.494Z,94804.30
2019-01-08T15:03:24.159Z,94806.62
2019-01-08T15:05:53.882Z,94804.72
2019-01-08T15:08:23.455Z,94802.91
2019-01-08T15:10:53.192Z,94804.83
2019-01-08T15:13:22.835Z,94800.78
2019-01-08T15:15:52.455Z,94813.41
2019-01-08T15:18:22.235Z,94814.00
2019-01-08T15:20:52.108Z,94809.91
2019-01-08T15:23:21.839Z,94814.19
2019-01-08T15:25:51.383Z,94816.40
2019-01-08T15:28:20.952Z,94818.16
2019-01-08T15:30:50.700Z,94808.00
2019-01-08T15:33:20.306Z,94815.43
2019-01-08T15:35:49.913Z,94807.25
2019-01-08T15:38:19.482Z,94811.61
2019-01-08T15:40:49.019Z,94803.39
2019-01-08T15:43:18.895Z,94805.72
2019-01-08T15:45:48.650Z,94802.63
2019-01-08T15:48:18.235Z,94798.97
2019-01-08T16:20:32.818Z,94808.81
2019-01-08T16:23:02.443Z,94806.44
2019-01-08T16:25:32.116Z,94806.98
2019-01-08T16:28:01.776Z,94808.81
2019-01-08T16:30:31.580Z,94808.00
2019-01-08T16:33:01.250Z,94811.97
2019-01-08T16:35:30.877Z,94821.72
2019-01-08T16:38:00.489Z,94816.09
2019-01-08T16:40:30.267Z,94820.70
2019-01-08T16:42:59.859Z,94814.16
2019-01-08T16:45:29.509Z,94817.66
2019-01-08T16:48:01.098Z,94813.07
2019-01-08T16:50:30.667Z,94810.14
2019-01-08T16:53:00.165Z,94821.64
2019-01-08T16:55:29.810Z,94816.99
2019-01-08T16:57:59.502Z,94816.72
2019-01-08T17:00:29.200Z,94808.42
2019-01-08T17:02:58.920Z,94812.34
2019-01-08T17:05:28.724Z,94797.10
2019-01-08T17:07:59.448Z,94805.45
2019-01-08T17:10:29.095Z,94805.73
2019-01-08T17:12:58.773Z,94805.52
2019-01-08T17:15:28.467Z,94807.61
2019-01-08T17:17:58.095Z,94802.41
2019-01-08T17:20:27.818Z,94809.33
2019-01-08T17:22:57.375Z,94819.48
2019-01-08T17:25:26.951Z,94811.31
2019-01-08T17:27:56.535Z,94812.50
2019-01-08T17:30:25.976Z,94807.73
2019-01-08T17:32:55.743Z,94805.64
2019-01-08T17:35:25.484Z,94795.87
2019-01-08T17:37:55.323Z,94792.67
2019-01-08T17:40:24.890Z,94782.94
2019-01-08T17:42:54.489Z,94777.51
2019-01-08T17:45:23.936Z,94778.92
2019-01-08T17:47:53.605Z,94774.75
2019-01-08T17:50:23.119Z,94774.31
2019-01-08T17:52:53.040Z,94778.64
2019-01-08T17:55:22.741Z,94768.73
2019-01-08T17:58:11.465Z,94779.23
2019-01-08T18:00:42.613Z,94782.41
2019-01-08T18:03:12.338Z,94783.39
2019-01-08T18:05:42.004Z,94780.80
2019-01-08T18:08:11.664Z,94788.69
2019-01-08T18:10:41.519Z,94771.94
2019-01-08T18:13:11.314Z,94777.64
2019-01-08T18:15:40.987Z,94771.85
2019-01-08T18:18:10.689Z,94776.02
2019-01-08T18:20:40.323Z,94776.50
2019-01-08T18:23:10.294Z,94780.37
2019-01-08T18:25:39.843Z,94776.62
2019-01-08T18:28:09.610Z,94771.32
2019-01-08T18:30:39.229Z,94769.39
2019-01-08T18:33:09.115Z,94771.45
2019-01-08T18:35:38.879Z,94773.13
2019-01-08T18:38:08.407Z,94777.82
2019-01-08T18:40:38.125Z,94767.18
2019-01-08T18:43:13.923Z,94767.83
2019-01-08T18:45:38.912Z,94771.69
2019-01-08T18:48:08.387Z,94771.63
2019-01-08T18:50:38.152Z,94763.48
2019-01-08T18:53:07.906Z,94769.17
2019-01-08T18:55:37.609Z,94774.13
2019-01-08T18:58:08.790Z,94774.73
2019-01-08T19:00:38.362Z,94770.98
2019-01-08T19:03:07.291Z,94769.39
2019-01-08T19:05:37.047Z,94769.06
2019-01-08T19:08:06.682Z,94770.79
2019-01-08T19:10:36.393Z,94768.95
2019-01-08T19:13:06.431Z,94759.15
2019-01-08T19:15:36.098Z,94759.34
2019-01-08T19:18:05.613Z,94767.08
2019-01-08T19:20:35.360Z,94761.12
2019-01-08T19:23:04.983Z,94756.83
2019-01-08T19:25:34.589Z,94753.50
2019-01-08T19:28:04.482Z,94747.15
2019-01-08T19:30:33.891Z,94748.47
2019-01-08T19:33:03.526Z,94746.10
2019-01-08T19:35:33.344Z,94739.88
2019-01-08T19:38:03.113Z,94732.11
2019-01-08T19:40:33.038Z,94731.83
2019-01-08T19:43:02.978Z,94724.17
2019-01-08T19:45:32.733Z,94733.17
2019-01-08T19:48:02.230Z,94717.64
2019-01-08T19:50:31.910Z,94716.30
2019-01-08T19:53:01.522Z,94715.38
2019-01-08T19:55:31.000Z,94707.53
2019-01-08T19:58:00.775Z,94705.02
2019-01-08T20:00:30.489Z,94705.24
2019-01-08T20:03:00.076Z,94700.41
2019-01-08T20:05:29.726Z,94698.48
2019-01-08T20:07:59.363Z,94697.89
2019-01-08T20:10:29.056Z,94701.16
2019-01-08T20:12:58.847Z,94700.83
2019-01-08T20:15:28.564Z,94702.64
2019-01-08T20:17:59.716Z,94704.52
2019-01-08T20:20:29.351Z,94700.16
2019-01-08T20:22:59.084Z,94693.70
2019-01-08T20:25:28.599Z,94703.20
2019-01-08T20:27:58.348Z,94690.08
2019-01-08T20:30:28.071Z,94692.03
2019-01-08T20:32:59.052Z,94694.72
2019-01-08T20:35:28.761Z,94686.98
2019-01-08T20:37:58.413Z,94677.12
2019-01-08T20:40:28.132Z,94688.43
2019-01-08T20:42:57.726Z,94683.73
2019-01-08T20:45:27.650Z,94685.66
2019-01-08T20:47:57.282Z,94689.58
2019-01-08T20:50:26.994Z,94690.64
2019-01-08T20:52:58.072Z,94690.19
2019-01-08T20:55:28.067Z,94685.52
2019-01-08T20:57:57.743Z,94675.84
2019-01-08T21:00:27.397Z,94672.56
2019-01-08T21:02:58.669Z,94669.14
2019-01-08T21:05:28.371Z,94658.30
2019-01-08T21:07:58.222Z,94650.42
2019-01-08T21:10:27.969Z,94654.34
2019-01-08T21:12:57.651Z,94654.03
2019-01-08T21:15:27.363Z,94646.20
2019-01-08T21:17:57.066Z,94656.66
2019-01-08T21:20:26.697Z,94657.94
2019-01-08T21:22:56.385Z,94658.80
2019-01-08T21:25:26.033Z,94648.61
2019-01-08T21:27:55.821Z,94651.29
2019-01-08T21:30:25.384Z,94649.16
2019-01-08T21:32:54.892Z,94644.28
2019-01-08T21:35:24.645Z,94644.76
2019-01-08T21:37:54.353Z,94650.91
2019-01-08T21:40:23.922Z,94646.88
2019-01-08T21:42:53.659Z,94647.91
2019-01-08T21:45:23.279Z,94645.23
2019-01-08T21:47:52.979Z,94646.83
2019-01-08T21:50:22.694Z,94651.83
2019-01-08T21:52:52.380Z,94646.30
2019-01-08T21:55:23.394Z,94644.20
2019-01-08T21:57:53.208Z,94648.34
2019-01-08T22:00:22.922Z,94640.23
2019-01-08T22:02:52.586Z,94637.14
2019-01-08T22:05:22.198Z,94634.94
2019-01-08T22:07:51.900Z,94631.98
2019-01-08T22:10:21.509Z,94630.36
2019-01-08T22:12:51.112Z,94626.56
2019-01-08T22:15:20.852Z,94627.31
2019-01-08T22:17:50.438Z,94622.02
2019-01-08T22:20:22.707Z,94621.00
2019-01-08T22:22:53.039Z,94615.73
2019-01-08T22:25:22.611Z,94613.97
2019-01-08T22:27:52.649Z,94607.86
2019-01-08T22:30:22.327Z,94604.90
2019-01-08T22:32:51.911Z,94601.38
2019-01-08T22:35:21.450Z,94598.14
2019-01-08T22:37:50.986Z,94599.77
2019-01-08T22:40:20.655Z,94594.83
2019-01-08T22:42:50.199Z,94586.51
2019-01-08T22:45:19.953Z,94579.55
2019-01-08T22:47:49.527Z,94583.88
2019-01-08T22:50:19.149Z,94583.58
2019-01-08T22:52:48.743Z,94572.43
2019-01-08T22:55:18.550Z,94573.72
2019-01-08T22:57:48.164Z,94559.45
2019-01-08T23:00:48.562Z,94563.48
2019-01-08T23:03:18.379Z,94564.28
2019-01-08T23:05:47.881Z,94551.14
2019-01-08T23:08:17.339Z,94551.80
2019-01-08T23:10:46.954Z,94552.91
2019-01-08T23:13:16.641Z,94561.48
2019-01-08T23:15:46.353Z,94556.59
2019-01-08T23:18:15.950Z,94556.06
2019-01-08T23:20:45.587Z,94558.44
2019-01-08T23:23:15.289Z,94563.95
2019-01-08T23:25:44.849Z,94557.41
2019-01-08T23:28:14.489Z,94552.66
2019-01-08T23:30:44.149Z,94554.25
2019-01-08T23:33:13.828Z,94554.73
2019-01-08T23:35:43.531Z,94543.22
2019-01-08T23:38:13.122Z,94545.41
2019-01-08T23:40:42.771Z,94550.40
2019-01-08T23:43:12.456Z,94550.77
2019-01-08T23:45:42.068Z,94540.52
2019-01-08T23:48:11.767Z,94538.82
2019-01-08T23:50:41.405Z,94546.69
2019-01-08T23:53:25.222Z,94546.64
2019-01-08T23:55:55.174Z,94544.01
2019-01-08T23:58:24.849Z,94536.58
